Domov               UVHVVR             MKGP            O straneh              
ZDRAVSTVENO VARSTVO RASTLIN
  MREŽA AGROMET. POSTAJ
 ► PROGNOSTIČNA OBVESTILA
AGROMETEOROLOŠKI PODATKI -
ARSO
OBVLADOVANJE TVEGANJ ZARADI
NEUGODNIH VREMENSKIH RAZMER
  ► NARAVNE NESREČE
  ► SUŠA/MOČA
  ► NAMAKANJE
  ► ŽLED (gozdarstvo)
KARTOGRAFSKI PRIKAZI
SPLETNE POVEZAVE
PROJEKTI IN PUBLIKACIJE

AGROMETEOROLOŠKA MREŽA: VREMENSKE POSTAJE IN FENOLOŠKA OPAZOVANJA

Pregled podatkov za lokacijo Žabnica (Dorfarje), meteorološka postaja 41375

Pregled senzorjev na lokaciji

ID Ime Zadnja
vrednost
Datum
zadnje
spremembe
Tip
senzorja
4184 Omočenost lista 20 cm (U) 0 U 23.3.2019 12:30 A730WET
3846 Padavine (mm) 0 mm 23.3.2019 12:30 Generic 0.2 mm
3847 Relativna vlaga 2 m (% RH) 40,76 % RH 23.3.2019 12:29 Generic 0 - 100 %
3950 Relativna vlaga 20 cm (% RH) 42,56 % RH 23.3.2019 12:30 Generic 0 - 100 %
3848 Temperatura 2 m (°C) 14,95 °C 23.3.2019 12:29 Generic -40 - +60 °C
3949 Temperatura 20 cm (°C) 18,9 °C 23.3.2019 12:30 Generic -40 - +60 °C

Pregled podatkov zadnjih 24 ur

Zap.
št.
Datum in čas Žabnica (Dorfarje)
Omočenost
lista
20
cm
Padavine Relativna
vlaga
2
m
Relativna
vlaga
20
cm
Temperatura
2
m
Temperatura
20
cm
1 23.3.2019 11:30 0 0 40,8 42,6 14,9 18,9
2 23.3.2019 11:00 0 0 42,6 44,3 14,3 17,7
3 23.3.2019 10:30 0 0 47,1 50,3 13,2 16
4 23.3.2019 10:00 0 0 57,7 58,2 10,9 13,8
5 23.3.2019 09:30 0 0 65,1 65,1 8,9 11,8
6 23.3.2019 09:00 0 0 70,3 72 7,2 9,1
7 23.3.2019 08:30 3 0 75,2 85,1 5,6 6,1
8 23.3.2019 08:00 10 0 84,8 99,4 3,3 2
9 23.3.2019 07:30 1 0 91,7 99,9 1,1 0
10 23.3.2019 07:00 0 0 93,1 99,9 -0,9 -1,8
11 23.3.2019 06:30 0 0 94,4 99,9 -1,3 -3
12 23.3.2019 06:00 0 0 93,8 99,9 -1,6 -3,1
13 23.3.2019 05:30 0 0 93,9 99,9 -1,6 -2,8
14 23.3.2019 05:00 0 0 93,4 99,9 -1,1 -2,5
15 23.3.2019 04:30 0 0 92,8 99,9 -0,8 -2,3
16 23.3.2019 04:00 0 0 92,1 99,9 -0,3 -1,9
17 23.3.2019 03:30 0 0 92,5 99,9 -0,7 -2
18 23.3.2019 03:00 0 0 91,3 99,9 -0,4 -1,9
19 23.3.2019 02:30 0 0 90 99,9 0 -1,8
20 23.3.2019 02:00 1 0 89 99,9 0,4 -1,3
21 23.3.2019 01:30 1 0 87,4 99,9 1,1 -0,7
22 23.3.2019 01:00 8 0 86,4 99,9 1,6 -0,9
23 23.3.2019 00:30 10 0 86,7 99,9 1,8 -0,6
24 23.3.2019 00:00 10 0 86,9 99,5 1,6 0,1
25 22.3.2019 23:30 10 0 82 99,3 2,9 0,2
26 22.3.2019 23:00 10 0 83,5 97,9 2,6 0,7
27 22.3.2019 22:30 10 0 81,4 97,6 3,4 1,1
28 22.3.2019 22:00 10 0 78,3 97,4 4,1 1,4
29 22.3.2019 21:30 10 0 78,7 95,9 4,3 1,8
30 22.3.2019 21:00 8 0 75,6 93 5,3 2,7
31 22.3.2019 20:30 2 0 76,7 90,3 5,6 3,6
32 22.3.2019 20:00 0 0 68,6 85,3 7,3 5
33 22.3.2019 19:30 0 0 61,4 81,8 9,4 6,3
34 22.3.2019 19:00 0 0 58,4 74,9 10,2 7,8
35 22.3.2019 18:30 0 0 51,3 67,6 12 9,7
36 22.3.2019 18:00 0 0 43,2 57,1 14,4 13
37 22.3.2019 17:30 0 0 36,8 45 16,2 15,9
38 22.3.2019 17:00 0 0 35,5 41,7 16,2 17,7
39 22.3.2019 16:30 0 0 34,2 38,8 16,4 18
40 22.3.2019 16:00 0 0 34,2 38,9 16,4 18,6
41 22.3.2019 15:30 0 0 36,7 39,9 16,1 18,3
42 22.3.2019 15:00 0 0 38,1 40,1 15,6 18,4
43 22.3.2019 14:30 0 0 39 41,4 15,5 18,7
44 22.3.2019 14:00 0 0 40,8 43 14,8 18,2
45 22.3.2019 13:30 0 0 41 44 14,2 17,4
46 22.3.2019 13:00 0 0 40,3 43,8 13,4 17
47 22.3.2019 12:30 0 0 41,1 45,1 12,6 16
48 22.3.2019 12:00 0 0 41,3 44,7 12,2 15,3
© 2011 Ministrstvo za kmetijstvo, gozdarstvo in prehrano. Vse pravice pridržane.